Latest Coastal Weather Observations for Portland Airport

IDS60701

Issued at 12:11 am CST Monday 15 April 2024 (issued every 10 minutes, with the page automatically refreshed every 10 minutes)

About coastal observations | Map of coastal stations | Coastal observations for SA | Marine services | Other Formats
Station Details ID: 090171 Name: PORTLAND AIRPORT Lat: -38.31 Lon: 141.47 Height: 80.9 m
Data from the previous 72 hours. | See also: Recent months at Portland Airport
Date/Time
CST
Wind Sea
Height
m
Swell Vis
km
Cloud Weather Temp
°C
Press
MSL
hPa
Rain since
9am
mm
Dir  Spd
kts
Gust
kts
Height
m
Period
s
Dir
15/12:00am N 4 5 - - - - 4 Partly cloudy - 8.7 1023.7 0.0
 
Date/Time
CST
Wind Sea
Height
m
Swell Vis
km
Cloud Weather Temp
°C
Press
MSL
hPa
Rain since
9am
mm
Dir  Spd
kts
Gust
kts
Height
m
Period
s
Dir
14/11:48pm N 5 6 - - - - 5 - - 8.7 1023.7 0.0
14/11:42pm NNW 4 6 - - - - 7 - - 8.8 1023.7 0.0
14/11:30pm NNW 3 4 - - - - 4 - - 9.2 1023.8 0.0
14/11:05pm N 4 6 - - - - 5 - - 9.4 1023.8 0.0
14/11:00pm N 5 6 - - - - 7 - - 9.6 1023.8 0.0
14/10:30pm NW 4 5 - - - - 8 - - 10.3 1024.0 0.0
14/10:00pm NW 5 7 - - - - 9 - - 11.1 1024.2 0.0
14/09:47pm NW 4 6 - - - - 8 - - 10.8 1024.2 0.0
14/09:30pm WNW 4 5 - - - - 2 - - 9.7 1024.1 0.0
14/09:00pm WNW 5 5 - - - - 4 - - 10.5 1024.0 0.0
14/08:48pm W 5 5 - - - - 5 - - 11.2 1024.0 0.0
14/08:30pm W 5 6 - - - - 7 - - 11.3 1024.0 0.0
14/08:29pm W 5 6 - - - - 7 - - 11.3 1024.0 0.0
14/08:11pm W 6 7 - - - - 5 - - 12.3 1023.9 0.0
14/08:00pm W 5 7 - - - - 7 Partly cloudy - 12.3 1024.0 0.0
14/07:56pm W 6 7 - - - - 8 Partly cloudy - 12.4 1024.0 0.0
14/07:33pm W 6 7 - - - - 10 Partly cloudy - 12.9 1023.9 0.0
14/07:30pm W 5 7 - - - - 10 Partly cloudy - 12.8 1023.9 0.0
14/07:00pm WNW 5 7 - - - - 10 - - 12.2 1023.7 0.0
14/06:30pm WNW 5 5 - - - - 10 Partly cloudy - 13.0 1023.5 0.0
14/06:00pm NW 5 6 - - - - 10 Cloudy - 14.3 1023.3 0.0
14/05:30pm WNW 6 9 - - - - 10 Cloudy - 15.1 1023.1 0.0
14/05:00pm WNW 8 10 - - - - 10 Cloudy - 15.3 1022.8 0.0
14/04:30pm - 8 11 - - - - 10 Cloudy - 16.0 1022.7 0.0
14/04:00pm - 9 13 - - - - 10 Cloudy - 16.4 1022.7 0.0
14/03:30pm - 10 15 - - - - 10 Partly cloudy - 16.4 1022.8 0.0
14/03:00pm WNW 11 16 - - - - 10 Cloudy - 16.9 1022.9 0.0
14/02:30pm WNW 10 15 - - - - 10 Mostly cloudy - 16.8 1023.0 0.0
14/02:00pm WNW 12 17 - - - - 10 Partly cloudy - 16.5 1022.8 0.0
14/01:30pm WNW 14 19 - - - - 10 Partly cloudy - 17.1 1022.8 0.0
14/01:00pm WNW 11 16 - - - - 10 Cloudy - 17.4 1023.0 0.0
14/12:30pm WNW 12 16 - - - - 10 Partly cloudy - 17.7 1023.3 0.0
14/12:00pm WNW 13 18 - - - - 10 Cloudy - 17.0 1023.6 0.0
14/11:30am W 13 17 - - - - 10 Cloudy - 16.6 1023.8 0.0
14/11:00am WNW 11 15 - - - - 10 Cloudy - 16.1 1023.9 0.0
14/10:30am NW 11 13 - - - - 10 Cloudy - 16.5 1023.9 0.0
14/10:00am NW 12 15 - - - - 10 Cloudy - 16.0 1024.0 0.0
14/09:30am WNW 11 16 - - - - 10 Cloudy - 16.0 1024.0 0.0
14/09:00am WNW 11 16 - - - - 10 Cloudy - 15.5 1023.9 0.0
14/08:30am NNW 7 10 - - - - 10 Mostly cloudy - 14.7 1024.0 0.0
14/08:00am NNW 6 9 - - - - 10 Cloudy - 14.2 1023.9 0.0
14/07:30am NW 7 10 - - - - 10 Partly cloudy - 13.2 1023.9 0.0
14/07:00am NW 7 13 - - - - 10 Partly cloudy - 12.9 1023.7 0.0
14/06:30am NW 7 10 - - - - 10 Partly cloudy - 12.7 1023.6 0.0
14/06:00am NW 5 7 - - - - 10 Partly cloudy - 11.8 1023.4 0.0
14/05:30am NW 6 9 - - - - 10 Cloudy - 12.2 1023.4 0.0
14/05:00am NW 6 9 - - - - 10 Partly cloudy - 12.4 1023.2 0.0
14/04:30am NW 5 8 - - - - 10 Cloudy - 12.2 1023.1 0.0
14/04:00am NNW 5 6 - - - - 10 Cloudy - 12.0 1023.0 0.0
14/03:30am N 5 6 - - - - 10 Cloudy - 11.8 1022.9 0.0
14/03:00am NNW 4 5 - - - - 10 Cloudy - 11.6 1022.9 0.0
14/02:30am NNW 4 6 - - - - 10 Cloudy - 11.3 1023.0 0.0
14/02:00am NNW 5 6 - - - - 10 Cloudy - 10.9 1023.3 0.0
14/01:30am NW 4 6 - - - - 10 Cloudy - 11.3 1023.5 0.0
14/01:00am NW 4 5 - - - - 10 Partly cloudy - 11.6 1023.6 0.0
14/12:30am NW 5 6 - - - - 10 Cloudy - 13.3 1023.6 0.0
14/12:00am NW 5 5 - - - - 10 Cloudy - 13.4 1023.7 0.0
 
Date/Time
CST
Wind Sea
Height
m
Swell Vis
km
Cloud Weather Temp
°C
Press
MSL
hPa
Rain since
9am
mm
Dir  Spd
kts
Gust
kts
Height
m
Period
s
Dir
13/11:30pm NW 5 6 - - - - 10 Cloudy - 13.0 1023.7 0.0
13/11:00pm NW 4 5 - - - - 10 Cloudy - 12.5 1023.9 0.0
13/10:30pm NNW 6 7 - - - - 10 Partly cloudy - 12.4 1024.0 0.0
13/10:00pm NNW 5 8 - - - - 10 Cloudy - 13.5 1024.2 0.0
13/09:30pm NNW 4 6 - - - - 10 Cloudy - 13.6 1024.3 0.0
13/09:00pm NW 5 6 - - - - 10 Cloudy - 13.5 1024.3 0.0
13/08:30pm NW 6 7 - - - - 10 Cloudy - 13.5 1024.2 0.0
13/08:00pm NW 6 7 - - - - 10 Partly cloudy - 13.5 1024.2 0.0
13/07:30pm NW 5 7 - - - - 10 Cloudy - 13.3 1024.1 0.0
13/07:00pm NW 5 6 - - - - 10 Cloudy - 12.9 1024.1 0.0
13/06:30pm NW 5 6 - - - - 10 Partly cloudy - 12.2 1024.0 0.0
13/06:00pm NW 5 6 - - - - 10 Partly cloudy - 12.2 1023.7 0.0
13/05:30pm - 5 6 - - - - 10 - - 13.4 1023.5 0.0
13/05:00pm WNW 7 10 - - - - 10 - - 14.2 1023.4 0.0
13/04:30pm WNW 9 12 - - - - 10 - - 15.5 1023.3 0.0
13/04:00pm WNW 8 11 - - - - 10 Partly cloudy - 16.6 1023.3 0.0
13/03:30pm WNW 10 13 - - - - 10 Partly cloudy - 16.2 1023.4 0.0
13/03:00pm W 8 11 - - - - 10 Partly cloudy - 16.1 1023.3 0.0
13/02:30pm W 10 13 - - - - 10 Cloudy - 16.7 1023.3 0.0
13/02:00pm W 10 13 - - - - 10 Partly cloudy - 16.1 1023.5 0.0
13/01:30pm - 9 12 - - - - 10 Partly cloudy - 16.7 1023.5 0.0
13/01:00pm - 8 12 - - - - 10 Partly cloudy - 16.3 1023.8 0.0
13/12:30pm W 9 13 - - - - 10 Partly cloudy - 15.7 1024.2 0.0
13/12:00pm WSW 10 15 - - - - 10 Partly cloudy - 16.3 1024.5 0.0
13/11:30am WSW 10 14 - - - - 10 Cloudy - 14.5 1024.6 0.0
13/11:00am W 9 11 - - - - 10 Cloudy - 15.8 1024.6 0.0
13/10:30am WNW 7 10 - - - - 10 Cloudy - 15.4 1024.5 0.0
13/10:00am WNW 6 8 - - - - 10 Cloudy - 14.9 1024.6 0.0
13/09:30am NW 8 10 - - - - 10 Cloudy - 14.4 1024.6 0.0
13/09:00am NW 6 9 - - - - 10 Cloudy - 14.0 1024.6 0.0
13/08:30am N 5 5 - - - - 10 Cloudy - 13.2 1024.5 0.8
13/08:00am N 4 6 - - - - 10 Cloudy - 12.6 1024.2 0.8
13/07:30am NNW 4 5 - - - - 10 Cloudy - 12.0 1023.8 0.8
13/07:00am NNW 5 6 - - - - 10 Cloudy - 11.5 1023.4 0.8
13/06:30am N 5 6 - - - - 10 Cloudy - 11.2 1023.2 0.8
13/06:00am N 5 6 - - - - 10 Cloudy - 11.0 1023.1 0.8
13/05:30am N 5 6 - - - - 10 Mostly cloudy - 11.3 1023.0 0.8
13/05:00am NW 4 6 - - - - 10 Cloudy - 12.0 1022.8 0.8
13/04:30am WNW 5 6 - - - - 10 Cloudy - 12.1 1022.7 0.8
13/04:00am WNW 6 8 - - - - 10 Partly cloudy - 12.1 1022.5 0.8
13/03:30am NW 7 9 - - - - 10 Cloudy - 12.1 1022.4 0.8
13/03:00am NW 5 7 - - - - 10 Cloudy - 12.0 1022.4 0.8
13/02:30am NW 5 8 - - - - 10 Cloudy - 12.0 1022.5 0.8
13/02:00am NW 6 9 - - - - 10 Partly cloudy - 12.0 1022.8 0.8
13/01:30am NW 5 7 - - - - 10 Partly cloudy - 11.1 1022.9 0.8
13/01:00am NNW 5 6 - - - - 10 Partly cloudy - 11.7 1022.8 0.8
13/12:30am NNW 5 7 - - - - 10 Cloudy - 11.7 1022.8 0.8
13/12:00am WNW 6 7 - - - - 10 Partly cloudy - 11.5 1022.8 0.8
 
Date/Time
CST
Wind Sea
Height
m
Swell Vis
km
Cloud Weather Temp
°C
Press
MSL
hPa
Rain since
9am
mm
Dir  Spd
kts
Gust
kts
Height
m
Period
s
Dir
12/11:30pm W 4 4 - - - - 10 Cloudy - 11.5 1022.8 0.8
12/11:00pm WNW 4 6 - - - - 10 Partly cloudy - 11.8 1023.0 0.8
12/10:30pm SW 1 3 - - - - 10 Partly cloudy - 10.7 1023.0 0.8
12/10:00pm SW 4 4 - - - - 10 Partly cloudy - 11.4 1023.1 0.8
12/09:30pm CALM 0 0 - - - - 10 Partly cloudy - 11.5 1023.2 0.6
12/09:00pm W 4 5 - - - - 10 Partly cloudy - 11.7 1023.0 0.6
12/08:30pm W 6 9 - - - - 9 Cloudy - 11.7 1022.9 0.6
12/08:00pm WNW 3 4 - - - - 10 Partly cloudy - 10.7 1022.8 0.6
12/07:30pm SSW 4 5 - - - - 10 Partly cloudy - 12.0 1022.9 0.6
12/07:00pm SW 4 4 - - - - 10 Partly cloudy - 11.2 1022.7 0.4
12/06:30pm SW 4 4 - - - - 10 Partly cloudy - 11.6 1022.6 0.4
12/06:00pm SW 5 7 - - - - 10 Partly cloudy - 12.6 1022.3 0.4
12/05:30pm - 8 11 - - - - 10 Cloudy - 13.7 1022.0 0.4
12/05:00pm - 7 8 - - - - 10 Partly cloudy - 13.7 1021.9 0.4
12/04:30pm - 7 9 - - - - 10 Partly cloudy - 15.2 1021.7 0.4
12/04:00pm WNW 8 12 - - - - 10 Partly cloudy - 15.6 1021.8 0.4
12/03:30pm - 9 12 - - - - 10 Partly cloudy - 14.7 1022.0 0.4
12/03:00pm W 9 13 - - - - 10 Partly cloudy - 14.9 1022.0 0.4
12/02:30pm W 12 16 - - - - 10 Cloudy - 16.2 1022.2 0.4
12/02:00pm WSW 12 17 - - - - 10 Partly cloudy - 16.1 1022.4 0.4
12/01:30pm WNW 11 15 - - - - 10 Partly cloudy - 16.2 1022.5 0.4
12/01:00pm WSW 15 19 - - - - 10 Partly cloudy - 14.1 1022.9 0.4
12/12:30pm NW 12 16 - - - - 10 Partly cloudy - 16.0 1023.2 0.4
12/12:03pm W 11 15 - - - - 10 Partly cloudy - 16.1 1023.8 0.4
12/12:00pm W 11 15 - - - - 10 Partly cloudy - 16.0 1023.8 0.4
12/11:35am W 10 15 - - - - 10 Partly cloudy - 14.1 1024.0 0.4
12/11:30am W 8 13 - - - - 10 Cloudy Rain 14.0 1024.0 0.4
12/11:16am W 13 19 - - - - 5 Partly cloudy - 13.9 1024.1 0.0
12/11:00am WSW 9 14 - - - - 10 Partly cloudy - 16.0 1024.0 0.0
12/10:30am WNW 10 14 - - - - 10 Partly cloudy - 15.7 1024.1 0.0
12/10:00am WNW 9 11 - - - - 10 Partly cloudy - 14.1 1024.2 0.0
12/09:30am NW 7 8 - - - - 10 Partly cloudy - 14.5 1024.3 0.0
12/09:10am WNW 8 10 - - - - 10 Partly cloudy - 13.3 1024.2 0.0
12/09:00am W 8 12 - - - - 10 Partly cloudy - 13.0 1024.2 0.0
12/08:56am WSW 8 12 - - - - 10 Partly cloudy - 13.1 1024.2 0.0
12/08:30am NNW 3 6 - - - - 10 Partly cloudy Recent precip. 13.2 1024.0 0.6
12/08:00am N 3 4 - - - - 10 Partly cloudy - 11.7 1023.9 0.6
12/07:47am N 4 5 - - - - 10 Partly cloudy - 10.3 1023.9 0.6
12/07:30am NNW 5 6 - - - - 5 Partly cloudy - 10.4 1023.8 0.4
12/07:25am N 5 6 - - - - 5 Partly cloudy - 10.4 1023.7 0.4
12/07:00am N 3 4 - - - - 10 Cloudy - 9.9 1023.5 0.2
12/06:30am N 5 6 - - - - 10 Partly cloudy - 10.0 1023.4 0.2
12/06:01am N 3 6 - - - - 10 Partly cloudy - 10.3 1023.4 0.2
12/06:00am N 3 6 - - - - 10 Partly cloudy - 10.3 1023.4 0.2
12/05:44am NNW 1 4 - - - - 10 Partly cloudy - 10.2 1023.5 0.2
12/05:42am NW 1 4 - - - - 10 Partly cloudy - 10.2 1023.4 0.2
12/05:30am NW 3 4 - - - - 4 Cloudy - 10.2 1023.3 0.2
12/05:22am NW 4 6 - - - - 5 Partly cloudy - 9.8 1023.3 0.2
12/05:00am NW 1 5 - - - - 10 Partly cloudy - 9.3 1023.1 0.2
12/04:30am CALM 0 0 - - - - 9 Partly cloudy - 9.7 1023.0 0.2
12/04:20am CALM 0 0 - - - - 10 Partly cloudy - 10.1 1022.9 0.2
12/04:00am W 4 5 - - - - 3 Cloudy - 9.7 1023.1 0.2
12/03:48am W 4 5 - - - - 5 Partly cloudy - 9.1 1023.1 0.0
12/03:39am NW 4 4 - - - - 10 Partly cloudy - 8.7 1022.9 0.0
12/03:30am NW 3 5 - - - - 6 Partly cloudy - 9.0 1022.9 0.0
12/03:27am NW 3 4 - - - - 5 Partly cloudy - 8.8 1022.9 0.0
12/03:00am CALM 0 3 - - - - 10 Partly cloudy - 9.7 1023.0 0.0
12/02:30am NW 4 6 - - - - 10 Cloudy - 10.6 1023.1 0.0
12/02:27am NW 5 6 - - - - 10 Partly cloudy - 10.8 1023.2 0.0
12/02:10am NW 4 7 - - - - 10 Partly cloudy - 10.6 1023.4 0.0
12/02:00am CALM 0 0 - - - - 10 Partly cloudy - 9.9 1023.5 0.0
12/01:30am NW 3 4 - - - - 10 Partly cloudy - 9.4 1023.6 0.0
12/01:00am WNW 5 5 - - - - 10 - - 9.9 1023.8 0.0
12/12:30am WNW 4 5 - - - - 10 Partly cloudy - 11.1 1023.8 0.0
12/12:00am W 4 5 - - - - 10 Partly cloudy - 10.4 1023.9 0.0

Other formats

Comma delimited format used in spreadsheet applications
http://www.bom.gov.au/fwo/IDS60701/IDS60701.94828.axf

JavaScript Object Notation format (JSON) in row-major order
http://www.bom.gov.au/fwo/IDS60701/IDS60701.94828.json

Data quality

Most of these data are generated automatically and are frequently updated. Quality checks on data are not normally performed. It is possible for incorrect values to appear. Refer to information at About Latest Weather Observations and please check the disclaimer before using these data.